sensor_id;sensor_type;location;lat;lon;timestamp;pressure;altitude;pressure_sealevel;temperature;humidity
4024;BME280;2026;51.002;13.668;2022-10-22T00:04:42;98710.63;;;10.90;89.79
4024;BME280;2026;51.002;13.668;2022-10-22T00:09:50;98700.94;;;10.79;90.15
4024;BME280;2026;51.002;13.668;2022-10-22T00:14:55;98700.53;;;10.87;89.83
4024;BME280;2026;51.002;13.668;2022-10-22T00:19:57;98712.47;;;10.78;90.62
4024;BME280;2026;51.002;13.668;2022-10-22T00:25:00;98694.28;;;10.88;90.21
4024;BME280;2026;51.002;13.668;2022-10-22T00:30:06;98686.84;;;10.85;90.20
4024;BME280;2026;51.002;13.668;2022-10-22T00:35:09;98679.97;;;10.84;89.89
4024;BME280;2026;51.002;13.668;2022-10-22T00:40:12;98688.34;;;10.81;89.48
4024;BME280;2026;51.002;13.668;2022-10-22T00:45:22;98701.19;;;10.77;89.66
4024;BME280;2026;51.002;13.668;2022-10-22T00:50:28;98683.69;;;10.71;90.17
4024;BME280;2026;51.002;13.668;2022-10-22T00:55:31;98692.28;;;10.66;90.37
4024;BME280;2026;51.002;13.668;2022-10-22T01:00:36;98695.38;;;10.63;90.28
4024;BME280;2026;51.002;13.668;2022-10-22T01:05:42;98691.44;;;10.78;89.52
4024;BME280;2026;51.002;13.668;2022-10-22T01:10:53;98687.31;;;10.82;89.61
4024;BME280;2026;51.002;13.668;2022-10-22T01:16:08;98678.66;;;10.70;90.11
4024;BME280;2026;51.002;13.668;2022-10-22T01:21:24;98696.38;;;10.33;88.74
4024;BME280;2026;51.002;13.668;2022-10-22T01:26:36;98696.91;;;10.47;88.60
4024;BME280;2026;51.002;13.668;2022-10-22T01:31:45;98688.03;;;10.36;89.27
4024;BME280;2026;51.002;13.668;2022-10-22T01:36:50;98690.78;;;10.30;89.79
4024;BME280;2026;51.002;13.668;2022-10-22T01:41:55;98685.25;;;10.43;89.51
4024;BME280;2026;51.002;13.668;2022-10-22T01:47:13;98681.47;;;10.51;88.84
4024;BME280;2026;51.002;13.668;2022-10-22T01:52:26;98681.34;;;10.58;88.65
4024;BME280;2026;51.002;13.668;2022-10-22T01:57:37;98680.41;;;10.64;88.75
4024;BME280;2026;51.002;13.668;2022-10-22T02:02:48;98674.66;;;10.67;88.73
4024;BME280;2026;51.002;13.668;2022-10-22T02:08:03;98679.16;;;10.66;88.57
4024;BME280;2026;51.002;13.668;2022-10-22T02:13:11;98682.94;;;10.59;89.47
4024;BME280;2026;51.002;13.668;2022-10-22T02:18:20;98671.38;;;10.60;89.22
4024;BME280;2026;51.002;13.668;2022-10-22T02:23:24;98667.78;;;10.49;89.61
4024;BME280;2026;51.002;13.668;2022-10-22T02:28:31;98665.88;;;10.61;89.14
4024;BME280;2026;51.002;13.668;2022-10-22T02:33:42;98669.06;;;10.63;88.85
4024;BME280;2026;51.002;13.668;2022-10-22T02:38:48;98657.44;;;10.59;89.37
4024;BME280;2026;51.002;13.668;2022-10-22T02:43:53;98674.25;;;10.58;89.91
4024;BME280;2026;51.002;13.668;2022-10-22T02:48:58;98666.28;;;10.41;89.86
4024;BME280;2026;51.002;13.668;2022-10-22T02:54:01;98671.63;;;10.58;88.49
4024;BME280;2026;51.002;13.668;2022-10-22T02:59:04;98659.44;;;10.40;89.32
4024;BME280;2026;51.002;13.668;2022-10-22T03:04:08;98664.47;;;10.42;89.42
4024;BME280;2026;51.002;13.668;2022-10-22T03:09:11;98678.53;;;10.35;90.29
4024;BME280;2026;51.002;13.668;2022-10-22T03:14:14;98666.09;;;10.31;89.98
4024;BME280;2026;51.002;13.668;2022-10-22T03:19:18;98675.66;;;10.37;89.62
4024;BME280;2026;51.002;13.668;2022-10-22T03:24:24;98675.41;;;10.50;89.11
4024;BME280;2026;51.002;13.668;2022-10-22T03:29:30;98684.00;;;10.46;89.46
4024;BME280;2026;51.002;13.668;2022-10-22T03:34:36;98682.25;;;10.10;91.27
4024;BME280;2026;51.002;13.668;2022-10-22T03:39:39;98689.09;;;10.11;90.62
4024;BME280;2026;51.002;13.668;2022-10-22T03:44:42;98700.28;;;10.19;90.03
4024;BME280;2026;51.002;13.668;2022-10-22T03:49:47;98704.47;;;10.44;89.55
4024;BME280;2026;51.002;13.668;2022-10-22T03:54:50;98705.50;;;10.43;89.58
4024;BME280;2026;51.002;13.668;2022-10-22T03:59:53;98705.38;;;10.49;89.93
4024;BME280;2026;51.002;13.668;2022-10-22T04:04:57;98693.13;;;10.55;89.83
4024;BME280;2026;51.002;13.668;2022-10-22T04:10:00;98693.16;;;10.43;90.58
4024;BME280;2026;51.002;13.668;2022-10-22T04:15:03;98689.25;;;10.46;90.10
4024;BME280;2026;51.002;13.668;2022-10-22T04:20:09;98694.84;;;10.49;89.79
4024;BME280;2026;51.002;13.668;2022-10-22T04:25:12;98700.28;;;10.31;90.34
4024;BME280;2026;51.002;13.668;2022-10-22T04:30:15;98699.56;;;10.35;89.66
4024;BME280;2026;51.002;13.668;2022-10-22T04:35:20;98696.63;;;10.20;90.32
4024;BME280;2026;51.002;13.668;2022-10-22T04:40:23;98707.72;;;10.10;90.44
4024;BME280;2026;51.002;13.668;2022-10-22T04:45:26;98695.03;;;10.19;90.38
4024;BME280;2026;51.002;13.668;2022-10-22T04:50:30;98698.22;;;10.21;89.07
4024;BME280;2026;51.002;13.668;2022-10-22T04:55:33;98685.44;;;10.01;90.42
4024;BME280;2026;51.002;13.668;2022-10-22T05:00:36;98691.75;;;10.00;90.23
4024;BME280;2026;51.002;13.668;2022-10-22T05:05:40;98688.63;;;10.03;90.43
4024;BME280;2026;51.002;13.668;2022-10-22T05:10:43;98685.47;;;9.89;91.13
4024;BME280;2026;51.002;13.668;2022-10-22T05:15:46;98695.06;;;9.95;90.94
4024;BME280;2026;51.002;13.668;2022-10-22T05:20:50;98694.94;;;10.02;90.19
4024;BME280;2026;51.002;13.668;2022-10-22T05:25:53;98712.16;;;10.09;89.96
4024;BME280;2026;51.002;13.668;2022-10-22T05:30:58;98721.91;;;9.97;90.07
4024;BME280;2026;51.002;13.668;2022-10-22T05:36:05;98708.19;;;10.07;89.87
4024;BME280;2026;51.002;13.668;2022-10-22T05:41:10;98731.72;;;9.90;90.48
4024;BME280;2026;51.002;13.668;2022-10-22T05:46:17;98732.06;;;10.05;89.80
4024;BME280;2026;51.002;13.668;2022-10-22T05:51:25;98730.00;;;10.07;88.88
4024;BME280;2026;51.002;13.668;2022-10-22T05:56:30;98734.81;;;9.99;89.97
4024;BME280;2026;51.002;13.668;2022-10-22T06:01:33;98737.78;;;10.02;89.28
4024;BME280;2026;51.002;13.668;2022-10-22T06:06:40;98751.69;;;10.15;89.46
4024;BME280;2026;51.002;13.668;2022-10-22T06:11:45;98767.47;;;10.15;89.76
4024;BME280;2026;51.002;13.668;2022-10-22T06:16:48;98763.03;;;10.15;89.97
4024;BME280;2026;51.002;13.668;2022-10-22T06:21:53;98757.84;;;10.32;89.82
4024;BME280;2026;51.002;13.668;2022-10-22T06:26:56;98758.81;;;10.26;90.62
4024;BME280;2026;51.002;13.668;2022-10-22T06:31:59;98763.22;;;10.37;90.31
4024;BME280;2026;51.002;13.668;2022-10-22T06:37:03;98775.00;;;10.47;89.95
4024;BME280;2026;51.002;13.668;2022-10-22T06:42:06;98778.66;;;10.46;90.11
4024;BME280;2026;51.002;13.668;2022-10-22T06:47:09;98800.16;;;10.19;91.47
4024;BME280;2026;51.002;13.668;2022-10-22T06:52:13;98802.53;;;10.08;91.38
4024;BME280;2026;51.002;13.668;2022-10-22T06:57:16;98800.72;;;10.33;90.60
4024;BME280;2026;51.002;13.668;2022-10-22T07:02:19;98810.69;;;10.43;90.69
4024;BME280;2026;51.002;13.668;2022-10-22T07:07:23;98820.63;;;10.64;91.02
4024;BME280;2026;51.002;13.668;2022-10-22T07:12:26;98826.31;;;10.61;91.04
4024;BME280;2026;51.002;13.668;2022-10-22T07:17:29;98832.47;;;10.67;90.47
4024;BME280;2026;51.002;13.668;2022-10-22T07:22:34;98827.13;;;10.62;90.73
4024;BME280;2026;51.002;13.668;2022-10-22T07:27:36;98843.59;;;10.69;89.89
4024;BME280;2026;51.002;13.668;2022-10-22T07:32:40;98852.50;;;10.56;90.29
4024;BME280;2026;51.002;13.668;2022-10-22T07:37:44;98855.03;;;10.51;89.98
4024;BME280;2026;51.002;13.668;2022-10-22T07:42:47;98878.34;;;10.23;91.14
4024;BME280;2026;51.002;13.668;2022-10-22T07:47:50;98880.63;;;10.91;95.63
4024;BME280;2026;51.002;13.668;2022-10-22T07:52:54;98896.00;;;11.36;95.87
4024;BME280;2026;51.002;13.668;2022-10-22T07:57:59;98895.06;;;11.42;96.36
4024;BME280;2026;51.002;13.668;2022-10-22T08:03:02;98890.59;;;11.71;94.07
4024;BME280;2026;51.002;13.668;2022-10-22T08:08:06;98897.56;;;11.78;93.49
4024;BME280;2026;51.002;13.668;2022-10-22T08:13:09;98895.97;;;11.77;92.08
4024;BME280;2026;51.002;13.668;2022-10-22T08:18:12;98907.56;;;11.75;92.35
4024;BME280;2026;51.002;13.668;2022-10-22T08:23:17;98917.22;;;11.87;92.26
4024;BME280;2026;51.002;13.668;2022-10-22T08:28:26;98917.88;;;11.94;91.58
4024;BME280;2026;51.002;13.668;2022-10-22T08:33:30;98903.22;;;11.98;91.57
4024;BME280;2026;51.002;13.668;2022-10-22T08:38:34;98902.22;;;12.05;90.56
4024;BME280;2026;51.002;13.668;2022-10-22T08:43:56;98900.25;;;12.12;89.62
4024;BME280;2026;51.002;13.668;2022-10-22T08:49:06;98910.78;;;12.12;90.75
4024;BME280;2026;51.002;13.668;2022-10-22T08:54:21;98917.38;;;12.26;89.71
4024;BME280;2026;51.002;13.668;2022-10-22T08:59:33;98926.09;;;12.27;89.65
4024;BME280;2026;51.002;13.668;2022-10-22T09:04:44;98920.66;;;12.34;90.00
4024;BME280;2026;51.002;13.668;2022-10-22T09:09:53;98923.69;;;12.42;89.59
4024;BME280;2026;51.002;13.668;2022-10-22T09:14:57;98930.50;;;12.55;88.42
4024;BME280;2026;51.002;13.668;2022-10-22T09:20:06;98930.19;;;12.69;88.33
4024;BME280;2026;51.002;13.668;2022-10-22T09:25:20;98939.19;;;12.90;87.39
4024;BME280;2026;51.002;13.668;2022-10-22T09:30:25;98926.00;;;13.12;87.17
4024;BME280;2026;51.002;13.668;2022-10-22T09:35:32;98925.41;;;13.50;86.97
4024;BME280;2026;51.002;13.668;2022-10-22T09:40:44;98938.22;;;13.86;84.41
4024;BME280;2026;51.002;13.668;2022-10-22T09:45:48;98934.50;;;14.09;83.44
4024;BME280;2026;51.002;13.668;2022-10-22T09:51:03;98932.16;;;14.13;82.05
4024;BME280;2026;51.002;13.668;2022-10-22T09:56:14;98934.53;;;14.14;81.66
4024;BME280;2026;51.002;13.668;2022-10-22T10:01:24;98939.94;;;14.30;81.13
4024;BME280;2026;51.002;13.668;2022-10-22T10:06:30;98943.53;;;14.51;80.33
4024;BME280;2026;51.002;13.668;2022-10-22T10:11:39;98946.91;;;15.22;78.95
4024;BME280;2026;51.002;13.668;2022-10-22T10:16:55;98940.66;;;15.44;76.35
4024;BME280;2026;51.002;13.668;2022-10-22T10:22:04;98952.13;;;15.70;76.30
4024;BME280;2026;51.002;13.668;2022-10-22T10:27:19;98947.47;;;16.24;74.68
4024;BME280;2026;51.002;13.668;2022-10-22T10:32:35;98948.28;;;16.20;74.06
4024;BME280;2026;51.002;13.668;2022-10-22T10:37:45;98947.19;;;16.05;74.67
4024;BME280;2026;51.002;13.668;2022-10-22T10:42:59;98951.91;;;15.82;78.07
4024;BME280;2026;51.002;13.668;2022-10-22T10:48:18;98965.19;;;15.93;75.45
4024;BME280;2026;51.002;13.668;2022-10-22T10:53:34;98965.25;;;16.19;72.11
4024;BME280;2026;51.002;13.668;2022-10-22T10:58:50;98953.56;;;16.09;73.05
4024;BME280;2026;51.002;13.668;2022-10-22T11:04:15;98956.78;;;16.27;71.21
4024;BME280;2026;51.002;13.668;2022-10-22T11:09:25;98978.50;;;16.08;68.19
4024;BME280;2026;51.002;13.668;2022-10-22T11:14:34;98976.22;;;15.58;70.52
4024;BME280;2026;51.002;13.668;2022-10-22T11:19:44;98986.75;;;15.38;71.17
4024;BME280;2026;51.002;13.668;2022-10-22T11:25:00;98980.22;;;15.08;72.20
4024;BME280;2026;51.002;13.668;2022-10-22T11:30:12;98983.06;;;14.96;72.80
4024;BME280;2026;51.002;13.668;2022-10-22T11:35:17;98988.66;;;14.99;73.99
4024;BME280;2026;51.002;13.668;2022-10-22T11:40:32;98977.91;;;15.16;73.58
4024;BME280;2026;51.002;13.668;2022-10-22T11:45:39;98977.25;;;15.52;72.37
4024;BME280;2026;51.002;13.668;2022-10-22T11:50:45;98966.22;;;15.81;71.20
4024;BME280;2026;51.002;13.668;2022-10-22T11:55:49;98963.00;;;15.69;71.34
4024;BME280;2026;51.002;13.668;2022-10-22T12:00:55;98968.56;;;15.62;72.38
4024;BME280;2026;51.002;13.668;2022-10-22T12:06:05;98971.03;;;15.90;72.03
4024;BME280;2026;51.002;13.668;2022-10-22T12:11:21;98958.31;;;16.02;71.50
4024;BME280;2026;51.002;13.668;2022-10-22T12:16:29;98963.03;;;15.84;71.56
4024;BME280;2026;51.002;13.668;2022-10-22T12:22:01;98964.94;;;15.94;69.87
4024;BME280;2026;51.002;13.668;2022-10-22T12:27:16;98959.91;;;15.98;69.73
4024;BME280;2026;51.002;13.668;2022-10-22T12:32:32;98961.00;;;16.07;69.35
4024;BME280;2026;51.002;13.668;2022-10-22T12:37:36;98969.22;;;16.06;69.66
4024;BME280;2026;51.002;13.668;2022-10-22T12:42:46;98963.63;;;16.02;70.39
4024;BME280;2026;51.002;13.668;2022-10-22T12:47:54;98954.38;;;16.20;69.56
4024;BME280;2026;51.002;13.668;2022-10-22T12:52:58;98954.38;;;16.41;68.70
4024;BME280;2026;51.002;13.668;2022-10-22T12:58:04;98946.16;;;16.53;66.37
4024;BME280;2026;51.002;13.668;2022-10-22T13:03:23;98959.94;;;16.39;67.08
4024;BME280;2026;51.002;13.668;2022-10-22T13:08:27;98960.50;;;16.52;66.44
4024;BME280;2026;51.002;13.668;2022-10-22T13:13:32;98963.94;;;16.37;64.94
4024;BME280;2026;51.002;13.668;2022-10-22T13:18:37;98966.88;;;16.35;66.97
4024;BME280;2026;51.002;13.668;2022-10-22T13:23:51;98975.88;;;16.29;66.39
4024;BME280;2026;51.002;13.668;2022-10-22T13:28:56;98971.91;;;16.42;66.53
4024;BME280;2026;51.002;13.668;2022-10-22T13:34:04;98977.22;;;16.47;65.04
4024;BME280;2026;51.002;13.668;2022-10-22T13:39:16;98979.06;;;16.67;64.96
4024;BME280;2026;51.002;13.668;2022-10-22T13:44:20;98982.25;;;16.49;65.68
4024;BME280;2026;51.002;13.668;2022-10-22T13:49:24;98987.03;;;16.52;65.17
4024;BME280;2026;51.002;13.668;2022-10-22T13:54:27;98992.59;;;16.24;66.63
4024;BME280;2026;51.002;13.668;2022-10-22T13:59:30;98993.66;;;16.29;66.39
4024;BME280;2026;51.002;13.668;2022-10-22T14:04:35;98986.50;;;16.45;65.92
4024;BME280;2026;51.002;13.668;2022-10-22T14:09:41;98983.31;;;16.22;67.35
4024;BME280;2026;51.002;13.668;2022-10-22T14:14:44;98991.69;;;15.93;67.87
4024;BME280;2026;51.002;13.668;2022-10-22T14:19:48;98995.72;;;16.06;68.07
4024;BME280;2026;51.002;13.668;2022-10-22T14:24:52;98996.03;;;16.20;67.13
4024;BME280;2026;51.002;13.668;2022-10-22T14:29:54;98990.22;;;16.28;67.13
4024;BME280;2026;51.002;13.668;2022-10-22T14:35:01;98998.13;;;16.02;67.27
4024;BME280;2026;51.002;13.668;2022-10-22T14:40:06;99009.81;;;16.06;67.50
4024;BME280;2026;51.002;13.668;2022-10-22T14:45:13;99007.41;;;16.05;68.46
4024;BME280;2026;51.002;13.668;2022-10-22T14:50:18;99012.91;;;15.93;68.22
4024;BME280;2026;51.002;13.668;2022-10-22T14:55:21;99003.34;;;15.76;68.30
4024;BME280;2026;51.002;13.668;2022-10-22T15:00:26;99016.06;;;15.79;68.33
4024;BME280;2026;51.002;13.668;2022-10-22T15:05:31;99027.19;;;15.76;69.46
4024;BME280;2026;51.002;13.668;2022-10-22T15:10:34;99018.66;;;15.64;70.18
4024;BME280;2026;51.002;13.668;2022-10-22T15:15:38;99022.38;;;15.68;70.25
4024;BME280;2026;51.002;13.668;2022-10-22T15:20:43;99032.41;;;15.55;70.84
4024;BME280;2026;51.002;13.668;2022-10-22T15:25:46;99026.25;;;15.39;71.28
4024;BME280;2026;51.002;13.668;2022-10-22T15:30:53;99038.16;;;15.37;71.81
4024;BME280;2026;51.002;13.668;2022-10-22T15:36:08;99050.78;;;15.24;72.55
4024;BME280;2026;51.002;13.668;2022-10-22T15:41:11;99054.47;;;15.18;72.72
4024;BME280;2026;51.002;13.668;2022-10-22T15:46:16;99065.47;;;14.99;73.60
4024;BME280;2026;51.002;13.668;2022-10-22T15:51:21;99069.53;;;14.80;74.22
4024;BME280;2026;51.002;13.668;2022-10-22T15:56:25;99076.97;;;14.55;75.43
4024;BME280;2026;51.002;13.668;2022-10-22T16:01:30;99084.53;;;14.41;76.01
4024;BME280;2026;51.002;13.668;2022-10-22T16:06:37;99083.75;;;14.18;76.61
4024;BME280;2026;51.002;13.668;2022-10-22T16:11:41;99093.63;;;14.01;77.19
4024;BME280;2026;51.002;13.668;2022-10-22T16:16:46;99088.34;;;13.61;78.38
4024;BME280;2026;51.002;13.668;2022-10-22T16:21:52;99100.09;;;13.71;78.40
4024;BME280;2026;51.002;13.668;2022-10-22T16:26:55;99103.28;;;13.73;78.38
4024;BME280;2026;51.002;13.668;2022-10-22T16:31:58;99110.38;;;13.72;78.41
4024;BME280;2026;51.002;13.668;2022-10-22T16:37:02;99124.56;;;13.26;80.32
4024;BME280;2026;51.002;13.668;2022-10-22T16:42:11;99131.69;;;13.26;79.60
4024;BME280;2026;51.002;13.668;2022-10-22T16:47:13;99138.41;;;13.17;79.38
4024;BME280;2026;51.002;13.668;2022-10-22T16:52:18;99138.09;;;13.30;78.95
4024;BME280;2026;51.002;13.668;2022-10-22T16:57:21;99142.16;;;13.21;79.56
4024;BME280;2026;51.002;13.668;2022-10-22T17:02:24;99151.22;;;13.25;78.65
4024;BME280;2026;51.002;13.668;2022-10-22T17:07:28;99159.84;;;13.37;78.18
4024;BME280;2026;51.002;13.668;2022-10-22T17:12:31;99157.13;;;13.49;77.04
4024;BME280;2026;51.002;13.668;2022-10-22T17:17:36;99163.44;;;13.65;76.55
4024;BME280;2026;51.002;13.668;2022-10-22T17:22:41;99165.03;;;13.49;76.59
4024;BME280;2026;51.002;13.668;2022-10-22T17:27:44;99178.50;;;13.48;76.99
4024;BME280;2026;51.002;13.668;2022-10-22T17:32:47;99183.47;;;13.27;77.52
4024;BME280;2026;51.002;13.668;2022-10-22T17:37:52;99187.69;;;13.28;77.25
4024;BME280;2026;51.002;13.668;2022-10-22T17:42:55;99194.41;;;13.19;77.46
4024;BME280;2026;51.002;13.668;2022-10-22T17:47:58;99202.09;;;13.37;75.97
4024;BME280;2026;51.002;13.668;2022-10-22T17:53:02;99201.69;;;13.11;77.02
4024;BME280;2026;51.002;13.668;2022-10-22T17:58:05;99200.72;;;13.01;76.81
4024;BME280;2026;51.002;13.668;2022-10-22T18:03:09;99208.78;;;12.94;76.85
4024;BME280;2026;51.002;13.668;2022-10-22T18:08:14;99213.03;;;12.95;76.70
4024;BME280;2026;51.002;13.668;2022-10-22T18:13:17;99214.50;;;12.91;76.79
4024;BME280;2026;51.002;13.668;2022-10-22T18:18:21;99221.31;;;12.87;76.68
4024;BME280;2026;51.002;13.668;2022-10-22T18:23:26;99229.47;;;12.85;76.64
4024;BME280;2026;51.002;13.668;2022-10-22T18:28:29;99234.00;;;12.73;77.17
4024;BME280;2026;51.002;13.668;2022-10-22T18:33:34;99228.38;;;12.69;76.88
4024;BME280;2026;51.002;13.668;2022-10-22T18:38:38;99230.25;;;12.56;77.47
4024;BME280;2026;51.002;13.668;2022-10-22T18:43:41;99225.56;;;12.47;77.85
4024;BME280;2026;51.002;13.668;2022-10-22T18:48:45;99225.19;;;12.43;78.02
4024;BME280;2026;51.002;13.668;2022-10-22T18:53:51;99229.34;;;12.39;78.08
4024;BME280;2026;51.002;13.668;2022-10-22T18:59:18;99222.22;;;12.39;77.81
4024;BME280;2026;51.002;13.668;2022-10-22T19:04:21;99224.66;;;12.17;78.51
4024;BME280;2026;51.002;13.668;2022-10-22T19:09:25;99221.47;;;12.15;78.79
4024;BME280;2026;51.002;13.668;2022-10-22T19:14:28;99225.56;;;12.11;78.87
4024;BME280;2026;51.002;13.668;2022-10-22T19:19:31;99246.31;;;11.95;79.41
4024;BME280;2026;51.002;13.668;2022-10-22T19:24:35;99234.88;;;12.13;80.86
4024;BME280;2026;51.002;13.668;2022-10-22T19:29:38;99248.50;;;12.22;78.52
4024;BME280;2026;51.002;13.668;2022-10-22T19:34:41;99245.28;;;12.20;78.88
4024;BME280;2026;51.002;13.668;2022-10-22T19:39:47;99254.69;;;12.16;78.90
4024;BME280;2026;51.002;13.668;2022-10-22T19:44:50;99257.56;;;12.26;78.60
4024;BME280;2026;51.002;13.668;2022-10-22T19:49:53;99252.41;;;12.32;78.76
4024;BME280;2026;51.002;13.668;2022-10-22T19:54:58;99259.06;;;12.34;78.36
4024;BME280;2026;51.002;13.668;2022-10-22T20:00:01;99261.78;;;12.51;77.79
4024;BME280;2026;51.002;13.668;2022-10-22T20:05:23;99258.69;;;12.54;77.51
4024;BME280;2026;51.002;13.668;2022-10-22T20:10:28;99264.44;;;12.51;77.71
4024;BME280;2026;51.002;13.668;2022-10-22T20:15:31;99260.88;;;12.57;77.71
4024;BME280;2026;51.002;13.668;2022-10-22T20:20:36;99270.03;;;12.55;77.62
4024;BME280;2026;51.002;13.668;2022-10-22T20:25:41;99271.66;;;12.56;78.00
4024;BME280;2026;51.002;13.668;2022-10-22T20:30:45;99277.84;;;12.38;78.49
4024;BME280;2026;51.002;13.668;2022-10-22T20:35:57;99288.88;;;12.47;78.19
4024;BME280;2026;51.002;13.668;2022-10-22T20:41:04;99297.38;;;12.25;79.06
4024;BME280;2026;51.002;13.668;2022-10-22T20:46:13;99313.53;;;12.28;79.06
4024;BME280;2026;51.002;13.668;2022-10-22T20:51:18;99304.59;;;12.18;78.94
4024;BME280;2026;51.002;13.668;2022-10-22T20:56:22;99299.31;;;12.06;80.09
4024;BME280;2026;51.002;13.668;2022-10-22T21:01:26;99298.03;;;12.20;79.79
4024;BME280;2026;51.002;13.668;2022-10-22T21:06:29;99295.63;;;12.07;80.07
4024;BME280;2026;51.002;13.668;2022-10-22T21:11:33;99298.69;;;11.92;80.68
4024;BME280;2026;51.002;13.668;2022-10-22T21:16:39;99307.41;;;11.80;81.20
4024;BME280;2026;51.002;13.668;2022-10-22T21:21:42;99305.88;;;11.72;81.43
4024;BME280;2026;51.002;13.668;2022-10-22T21:26:46;99304.47;;;11.58;82.32
4024;BME280;2026;51.002;13.668;2022-10-22T21:31:49;99321.09;;;11.58;82.16
4024;BME280;2026;51.002;13.668;2022-10-22T21:36:53;99320.78;;;11.79;81.94
4024;BME280;2026;51.002;13.668;2022-10-22T21:41:58;99320.28;;;11.58;82.53
4024;BME280;2026;51.002;13.668;2022-10-22T21:47:01;99307.69;;;11.60;82.35
4024;BME280;2026;51.002;13.668;2022-10-22T21:52:04;99317.75;;;11.51;82.46
4024;BME280;2026;51.002;13.668;2022-10-22T21:57:08;99315.00;;;11.58;82.21
4024;BME280;2026;51.002;13.668;2022-10-22T22:02:11;99319.13;;;11.54;82.40
4024;BME280;2026;51.002;13.668;2022-10-22T22:07:14;99317.44;;;11.29;82.85
4024;BME280;2026;51.002;13.668;2022-10-22T22:12:19;99321.69;;;11.30;83.01
4024;BME280;2026;51.002;13.668;2022-10-22T22:17:22;99310.56;;;11.28;82.84
4024;BME280;2026;51.002;13.668;2022-10-22T22:22:25;99321.47;;;11.31;83.04
4024;BME280;2026;51.002;13.668;2022-10-22T22:27:29;99312.47;;;11.20;83.54
4024;BME280;2026;51.002;13.668;2022-10-22T22:32:32;99308.66;;;11.16;83.55
4024;BME280;2026;51.002;13.668;2022-10-22T22:37:35;99310.22;;;11.24;83.10
4024;BME280;2026;51.002;13.668;2022-10-22T22:42:40;99315.69;;;11.23;83.15
4024;BME280;2026;51.002;13.668;2022-10-22T22:47:43;99318.91;;;11.25;83.45
4024;BME280;2026;51.002;13.668;2022-10-22T22:52:46;99316.75;;;11.33;82.57
4024;BME280;2026;51.002;13.668;2022-10-22T22:57:50;99310.72;;;11.14;83.37
4024;BME280;2026;51.002;13.668;2022-10-22T23:02:53;99310.06;;;11.00;84.00
4024;BME280;2026;51.002;13.668;2022-10-22T23:07:56;99312.31;;;10.78;84.29
4024;BME280;2026;51.002;13.668;2022-10-22T23:13:01;99305.53;;;10.70;84.18
4024;BME280;2026;51.002;13.668;2022-10-22T23:18:04;99302.31;;;10.68;84.51
4024;BME280;2026;51.002;13.668;2022-10-22T23:23:07;99304.56;;;10.46;85.05
4024;BME280;2026;51.002;13.668;2022-10-22T23:28:11;99314.78;;;10.35;85.36
4024;BME280;2026;51.002;13.668;2022-10-22T23:33:14;99304.94;;;10.49;85.23
4024;BME280;2026;51.002;13.668;2022-10-22T23:38:19;99310.16;;;10.75;85.26
4024;BME280;2026;51.002;13.668;2022-10-22T23:43:24;99322.25;;;10.94;84.13
4024;BME280;2026;51.002;13.668;2022-10-22T23:48:27;99319.94;;;10.86;84.25
4024;BME280;2026;51.002;13.668;2022-10-22T23:53:30;99320.38;;;10.83;83.99
4024;BME280;2026;51.002;13.668;2022-10-22T23:58:35;99319.06;;;10.74;84.61
